Time;durP1;ratioP1;P1;durP2;ratioP2;P2;SDS_P1;SDS_P2;PMS_P1;PMS_P2;Temp;Humidity;BMP_temperature;BMP_pressure;BME280_temperature;BME280_humidity;BME280_pressure;Samples;Min_cycle;Max_cycle;Signal;HPM_P1;HPM_P2
2022/01/09 00:02:19;;;;;;;;;;;6.20;99.20;;;;;;5113230;28;20416;-76
2022/01/09 00:04:44;;;;;;;;;;;8.20;99.90;;;;;;5112718;28;19998;-74
2022/01/09 00:07:10;;;;;;;;;;;6.20;99.90;;;;;;5131647;28;19908;-75
2022/01/09 00:09:37;;;;;;;;;;;6.10;99.90;;;;;;5131352;28;19908;-74
2022/01/09 00:12:03;;;;;;;;;;;6.00;99.90;;;;;;5113201;28;19914;-76
2022/01/09 00:14:29;;;;;;;;;;;6.00;99.90;;;;;;5131266;28;19912;-75
2022/01/09 00:16:54;;;;;;;;;;;6.00;99.90;;;;;;5112346;28;19919;-76
2022/01/09 00:19:19;;;;;;;;;;;6.00;99.90;;;;;;5112888;28;19975;-75
2022/01/09 00:21:45;;;;;;;;;;;6.00;99.90;;;;;;5112367;28;19907;-75
2022/01/09 00:24:11;;;;;;;;;;;5.90;99.90;;;;;;5125011;28;19908;-74
2022/01/09 00:26:37;;;;;;;;;;;5.90;99.90;;;;;;5110702;28;19916;-76
2022/01/09 00:29:02;;;;;;;;;;;5.90;99.90;;;;;;5110085;28;19908;-74
2022/01/09 00:31:28;;;;;;;;;;;5.90;99.90;;;;;;5110539;28;20414;-76
2022/01/09 00:33:53;;;;;;;;;;;5.80;99.90;;;;;;5110266;28;19908;-77
2022/01/09 00:36:19;;;;;;;;;;;5.80;99.90;;;;;;5110555;28;19915;-75
2022/01/09 00:38:44;;;;;;;;;;;5.80;99.90;;;;;;5109715;28;19912;-76
2022/01/09 00:41:10;;;;;;;;;;;6.70;99.90;;;;;;5111261;28;19909;-75
2022/01/09 00:43:36;;;;;;;;;;;5.60;99.90;;;;;;5097185;28;20382;-77
2022/01/09 00:46:01;;;;;;;;;;;5.70;99.90;;;;;;5112200;28;20296;-76
2022/01/09 00:48:26;;;;;;;;;;;5.70;99.90;;;;;;5130842;28;19998;-77
2022/01/09 00:50:52;;;;;;;;;;;5.70;99.90;;;;;;5112146;28;20257;-76
2022/01/09 00:53:17;;;;;;;;;;;5.60;99.90;;;;;;5131620;28;19914;-77
2022/01/09 00:55:43;;;;;;;;;;;5.60;99.90;;;;;;5113356;28;19924;-78
2022/01/09 00:58:08;;;;;;;;;;;5.60;99.90;;;;;;5130862;28;19911;-77
2022/01/09 01:00:35;;;;;;;;;;;5.70;99.90;;;;;;5131087;28;20048;-76
2022/01/09 01:03:00;;;;;;;;;;;5.70;99.90;;;;;;5129203;28;20132;-76
2022/01/09 01:05:26;;;;;;;;;;;5.80;99.90;;;;;;5130147;28;19912;-76
2022/01/09 01:07:51;;;;;;;;;;;5.70;99.90;;;;;;5101719;28;19911;-76
2022/01/09 01:10:17;;;;;;;;;;;5.70;99.90;;;;;;5116620;28;19908;-77
2022/01/09 01:12:42;;;;;;;;;;;5.70;99.90;;;;;;5116390;28;20420;-79
2022/01/09 01:15:08;;;;;;;;;;;5.60;99.90;;;;;;5117067;28;20010;-77
2022/01/09 01:17:35;;;;;;;;;;;5.60;99.90;;;;;;5098273;28;19965;-77
2022/01/09 01:20:01;;;;;;;;;;;5.60;99.90;;;;;;5116035;28;19908;-76
2022/01/09 01:22:27;;;;;;;;;;;5.60;99.90;;;;;;5116405;28;19907;-76
2022/01/09 01:24:53;;;;;;;;;;;5.50;99.90;;;;;;5086056;28;19908;-73
2022/01/09 01:27:19;;;;;;;;;;;;;;;;;;5110967;28;19912;-76
2022/01/09 01:29:44;;;;;;;;;;;5.40;99.90;;;;;;5116135;28;19908;-74
2022/01/09 01:32:10;;;;;;;;;;;5.30;99.90;;;;;;5116164;28;19911;-74
2022/01/09 01:34:35;;;;;;;;;;;5.20;99.90;;;;;;5115802;28;20409;-73
2022/01/09 01:37:01;;;;;;;;;;;5.20;99.90;;;;;;5115693;28;19911;-74
2022/01/09 01:39:26;;;;;;;;;;;5.10;99.90;;;;;;5116096;28;19918;-73
2022/01/09 01:41:52;;;;;;;;;;;5.00;99.90;;;;;;5115276;28;20010;-72
2022/01/09 01:44:17;;;;;;;;;;;4.90;99.90;;;;;;5097750;28;19915;-73
2022/01/09 01:46:43;;;;;;;;;;;;;;;;;;5116079;28;19953;-75
2022/01/09 01:49:11;;;;;;;;;;;4.90;99.90;;;;;;5116013;28;19908;-74
2022/01/09 01:51:38;;;;;;;;;;;4.80;99.90;;;;;;5115830;28;19977;-75
2022/01/09 01:54:04;;;;;;;;;;;4.80;99.90;;;;;;5115056;28;19915;-74
2022/01/09 01:56:29;;;;;;;;;;;4.70;99.90;;;;;;5107261;28;19924;-74
2022/01/09 01:58:56;;;;;;;;;;;4.80;99.90;;;;;;5095100;28;19912;-73
2022/01/09 02:01:21;;;;;;;;;;;4.70;99.90;;;;;;5095399;28;19915;-74
2022/01/09 02:03:47;;;;;;;;;;;4.70;99.90;;;;;;5094836;28;19908;-75
2022/01/09 02:06:14;;;;;;;;;;;4.70;99.90;;;;;;5077473;28;19909;-75
2022/01/09 02:08:41;;;;;;;;;;;4.80;99.90;;;;;;5095466;28;19908;-75
2022/01/09 02:11:06;;;;;;;;;;;4.70;99.90;;;;;;5112562;28;19931;-75
2022/01/09 02:13:32;;;;;;;;;;;4.70;99.90;;;;;;5097462;28;20359;-74
2022/01/09 02:15:59;;;;;;;;;;;4.70;99.90;;;;;;5114736;28;19915;-74
2022/01/09 02:18:25;;;;;;;;;;;4.70;99.90;;;;;;5096404;28;20310;-75
2022/01/09 02:20:51;;;;;;;;;;;4.70;99.90;;;;;;5114707;28;19908;-75
2022/01/09 02:23:17;;;;;;;;;;;;;;;;;;5115153;28;19908;-74
2022/01/09 02:25:43;;;;;;;;;;;4.70;99.90;;;;;;5095496;28;19917;-75
2022/01/09 02:28:10;;;;;;;;;;;4.80;99.90;;;;;;5094856;28;19912;-76
2022/01/09 02:30:36;;;;;;;;;;;4.80;99.90;;;;;;5094802;28;20360;-75
2022/01/09 02:33:03;;;;;;;;;;;4.80;99.90;;;;;;5075997;28;20016;-75
2022/01/09 02:35:29;;;;;;;;;;;4.80;99.90;;;;;;5094778;28;19959;-75
2022/01/09 02:37:55;;;;;;;;;;;4.80;99.90;;;;;;5094102;28;19953;-75
2022/01/09 02:40:22;;;;;;;;;;;4.80;99.90;;;;;;5105681;28;19908;-76
2022/01/09 02:42:48;;;;;;;;;;;;;;;;;;5095882;28;20323;-76
2022/01/09 02:45:13;;;;;;;;;;;4.70;99.90;;;;;;5096688;28;20006;-76
2022/01/09 02:47:39;;;;;;;;;;;4.70;99.90;;;;;;5114853;28;20004;-76
2022/01/09 02:50:27;;;;;;;;;;;4.70;99.90;;;;;;5095802;28;19908;-75
2022/01/09 02:53:02;;;;;;;;;;;4.80;99.90;;;;;;5096217;28;19908;-76
2022/01/09 02:55:28;;;;;;;;;;;4.70;99.90;;;;;;5069641;28;19925;-76
2022/01/09 02:57:58;;;;;;;;;;;4.70;99.90;;;;;;5067707;28;19912;-76
2022/01/09 03:00:25;;;;;;;;;;;4.70;99.90;;;;;;5054009;28;19908;-76
2022/01/09 03:02:51;;;;;;;;;;;4.70;99.90;;;;;;5053703;28;19909;-75
2022/01/09 03:05:17;;;;;;;;;;;4.70;99.90;;;;;;5054402;28;20277;-76
2022/01/09 03:07:44;;;;;;;;;;;4.70;99.90;;;;;;5053508;28;19912;-76
2022/01/09 03:10:10;;;;;;;;;;;4.70;99.90;;;;;;5062313;28;20376;-75
2022/01/09 03:12:36;;;;;;;;;;;4.60;99.90;;;;;;5073688;28;19908;-75
2022/01/09 03:15:03;;;;;;;;;;;4.50;99.90;;;;;;5071779;28;20265;-75
2022/01/09 03:17:29;;;;;;;;;;;;;;;;;;5073455;28;19999;-75
2022/01/09 03:19:54;;;;;;;;;;;4.50;99.90;;;;;;5071756;28;19959;-76
2022/01/09 03:22:19;;;;;;;;;;;4.50;99.90;;;;;;5073582;28;20361;-75
2022/01/09 03:24:45;;;;;;;;;;;4.60;99.90;;;;;;5058971;28;19908;-76
2022/01/09 03:27:11;;;;;;;;;;;4.50;99.90;;;;;;5052953;28;19916;-73
2022/01/09 03:29:37;;;;;;;;;;;4.60;99.90;;;;;;5053362;28;19915;-76
2022/01/09 03:32:03;;;;;;;;;;;4.70;99.90;;;;;;5052889;28;20388;-75
2022/01/09 03:34:28;;;;;;;;;;;4.90;99.90;;;;;;5056773;28;19908;-75
2022/01/09 03:36:54;;;;;;;;;;;5.00;99.90;;;;;;5072833;28;19913;-75
2022/01/09 03:39:19;;;;;;;;;;;5.00;99.90;;;;;;5069234;28;20284;-75
2022/01/09 03:41:45;;;;;;;;;;;5.10;99.90;;;;;;5053515;28;19908;-75
2022/01/09 03:44:10;;;;;;;;;;;5.10;99.90;;;;;;5052359;28;19951;-76
2022/01/09 03:46:36;;;;;;;;;;;5.10;99.90;;;;;;5052979;28;19995;-75
2022/01/09 03:49:01;;;;;;;;;;;5.20;99.90;;;;;;5052438;28;20400;-74
2022/01/09 03:51:32;;;;;;;;;;;5.30;99.90;;;;;;5053143;28;20365;-75
2022/01/09 03:53:58;;;;;;;;;;;5.30;99.90;;;;;;5059602;28;19960;-75
2022/01/09 03:56:24;;;;;;;;;;;5.30;99.90;;;;;;5101213;28;19971;-74
2022/01/09 03:58:49;;;;;;;;;;;5.30;99.90;;;;;;5113780;28;19961;-74
2022/01/09 04:01:15;;;;;;;;;;;5.30;99.90;;;;;;5112762;28;19912;-74
2022/01/09 04:03:40;;;;;;;;;;;5.30;99.90;;;;;;5113660;28;19950;-75
2022/01/09 04:06:06;;;;;;;;;;;5.30;99.90;;;;;;5112932;28;20351;-76
2022/01/09 04:08:33;;;;;;;;;;;5.30;99.90;;;;;;5113775;28;19914;-74
2022/01/09 04:11:00;;;;;;;;;;;5.40;99.90;;;;;;5078376;28;19912;-75
2022/01/09 04:13:25;;;;;;;;;;;5.30;99.90;;;;;;5075077;28;20061;-76
2022/01/09 04:15:51;;;;;;;;;;;5.40;99.90;;;;;;5074570;28;20032;-74
2022/01/09 04:18:17;;;;;;;;;;;5.40;99.90;;;;;;5092464;28;19908;-75
2022/01/09 04:20:43;;;;;;;;;;;5.40;99.90;;;;;;5093083;28;20057;-75
2022/01/09 04:23:09;;;;;;;;;;;5.40;99.90;;;;;;5074639;28;19947;-77
2022/01/09 04:25:34;;;;;;;;;;;5.30;99.90;;;;;;5112578;28;20006;-75
2022/01/09 04:28:00;;;;;;;;;;;5.30;99.90;;;;;;5112855;28;20370;-75
2022/01/09 04:30:25;;;;;;;;;;;5.30;99.90;;;;;;5095195;28;19914;-76
2022/01/09 04:32:51;;;;;;;;;;;5.30;99.90;;;;;;5113328;28;19908;-76
2022/01/09 04:35:16;;;;;;;;;;;5.40;99.90;;;;;;5094236;28;19916;-76
2022/01/09 04:37:42;;;;;;;;;;;5.30;99.90;;;;;;5113412;28;19954;-75
2022/01/09 04:40:10;;;;;;;;;;;5.40;99.90;;;;;;5112616;28;19946;-75
2022/01/09 04:42:45;;;;;;;;;;;5.40;99.90;;;;;;5096477;28;20283;-76
2022/01/09 04:45:12;;;;;;;;;;;5.40;99.90;;;;;;5116918;28;19934;-77
2022/01/09 04:47:41;;;;;;;;;;;5.40;99.90;;;;;;5117275;28;19916;-76
2022/01/09 04:50:09;;;;;;;;;;;5.40;99.90;;;;;;5116834;28;19908;-77
2022/01/09 04:52:38;;;;;;;;;;;5.40;99.90;;;;;;5116694;28;19908;-77
2022/01/09 04:55:04;;;;;;;;;;;5.40;99.90;;;;;;5078406;28;20007;-77
2022/01/09 04:57:29;;;;;;;;;;;5.40;99.90;;;;;;5096469;28;19997;-76
2022/01/09 04:59:55;;;;;;;;;;;;;;;;;;5078314;28;20267;-77
2022/01/09 05:02:20;;;;;;;;;;;5.40;99.90;;;;;;5105715;28;19918;-77
2022/01/09 05:04:46;;;;;;;;;;;5.40;99.90;;;;;;5098562;28;19912;-77
2022/01/09 05:07:11;;;;;;;;;;;5.30;99.90;;;;;;5116166;28;19918;-77
2022/01/09 05:09:37;;;;;;;;;;;5.40;99.90;;;;;;5116466;28;19922;-76
2022/01/09 05:12:03;;;;;;;;;;;5.30;99.90;;;;;;5116024;28;19912;-76
2022/01/09 05:14:28;;;;;;;;;;;5.40;99.90;;;;;;5116443;28;19908;-76
2022/01/09 05:16:54;;;;;;;;;;;5.40;99.90;;;;;;5116347;28;19916;-76
2022/01/09 05:19:22;;;;;;;;;;;5.30;99.90;;;;;;5115822;28;19908;-75
2022/01/09 05:21:48;;;;;;;;;;;5.30;99.90;;;;;;5097855;28;19915;-75
2022/01/09 05:24:14;;;;;;;;;;;5.40;99.90;;;;;;5103487;28;19916;-76
2022/01/09 05:26:39;;;;;;;;;;;5.30;99.90;;;;;;5096118;28;19982;-77
2022/01/09 05:29:05;;;;;;;;;;;5.30;99.90;;;;;;5095532;28;20348;-76
2022/01/09 05:31:30;;;;;;;;;;;5.30;99.90;;;;;;5095944;28;19908;-76
2022/01/09 05:33:56;;;;;;;;;;;5.30;99.90;;;;;;5095664;28;19908;-77
2022/01/09 05:36:21;;;;;;;;;;;5.20;99.90;;;;;;5095004;28;19923;-77
2022/01/09 05:38:47;;;;;;;;;;;5.30;99.90;;;;;;5078102;28;19912;-77
2022/01/09 05:41:12;;;;;;;;;;;5.20;99.90;;;;;;5110360;28;19912;-76
2022/01/09 05:43:39;;;;;;;;;;;5.30;99.90;;;;;;5116779;28;20288;-78
2022/01/09 05:46:05;;;;;;;;;;;5.20;99.90;;;;;;5115716;28;19908;-77
2022/01/09 05:48:31;;;;;;;;;;;5.20;99.90;;;;;;5097695;28;20408;-77
2022/01/09 05:50:56;;;;;;;;;;;5.30;99.90;;;;;;5115896;28;19960;-78
2022/01/09 05:53:22;;;;;;;;;;;5.30;99.90;;;;;;5108481;28;20010;-77
2022/01/09 05:55:47;;;;;;;;;;;5.30;99.90;;;;;;5095337;28;20009;-76
2022/01/09 05:58:13;;;;;;;;;;;5.30;99.90;;;;;;5094533;28;20286;-76
2022/01/09 06:00:39;;;;;;;;;;;5.30;99.90;;;;;;5095049;28;19961;-77
2022/01/09 06:03:04;;;;;;;;;;;5.20;99.90;;;;;;5094707;28;19981;-76
2022/01/09 06:05:30;;;;;;;;;;;5.20;99.90;;;;;;5095420;28;19930;-77
2022/01/09 06:07:55;;;;;;;;;;;5.20;99.90;;;;;;5095222;28;19930;-77
2022/01/09 06:10:21;;;;;;;;;;;5.20;99.90;;;;;;5100968;28;19908;-77
2022/01/09 06:12:46;;;;;;;;;;;5.20;99.90;;;;;;5115470;28;19911;-77
2022/01/09 06:15:12;;;;;;;;;;;5.20;99.90;;;;;;5114485;28;19912;-77
2022/01/09 06:17:39;;;;;;;;;;;5.10;99.90;;;;;;5115358;28;20355;-77
2022/01/09 06:20:05;;;;;;;;;;;5.20;99.90;;;;;;5096648;28;19975;-76
2022/01/09 06:22:31;;;;;;;;;;;5.20;99.90;;;;;;5097107;28;19907;-77
2022/01/09 06:24:56;;;;;;;;;;;5.10;99.90;;;;;;5094829;28;19991;-77
2022/01/09 06:27:22;;;;;;;;;;;5.10;99.90;;;;;;5094418;28;19923;-76
2022/01/09 06:29:48;;;;;;;;;;;5.10;99.90;;;;;;5094978;28;19908;-77
2022/01/09 06:32:13;;;;;;;;;;;5.10;99.90;;;;;;5086496;28;19911;-76
2022/01/09 06:34:40;;;;;;;;;;;5.10;99.90;;;;;;5100117;28;19913;-76
2022/01/09 06:37:05;;;;;;;;;;;5.10;99.90;;;;;;5075828;28;20279;-77
2022/01/09 06:39:31;;;;;;;;;;;5.10;99.90;;;;;;5095087;28;19908;-77
2022/01/09 06:41:56;;;;;;;;;;;5.00;99.90;;;;;;5094367;28;19961;-76
2022/01/09 06:44:22;;;;;;;;;;;5.00;99.90;;;;;;5094133;28;19977;-77
2022/01/09 06:46:47;;;;;;;;;;;5.00;99.90;;;;;;5094860;28;20367;-77
2022/01/09 06:49:13;;;;;;;;;;;5.00;99.90;;;;;;5093804;28;20348;-77
2022/01/09 06:51:38;;;;;;;;;;;4.90;99.90;;;;;;5076634;28;19908;-77
2022/01/09 06:54:04;;;;;;;;;;;5.00;99.90;;;;;;5106049;28;19949;-77
2022/01/09 06:56:29;;;;;;;;;;;4.90;99.90;;;;;;5114367;28;19923;-77
2022/01/09 06:58:55;;;;;;;;;;;4.90;99.90;;;;;;5096272;28;19915;-77
2022/01/09 07:01:20;;;;;;;;;;;4.90;99.90;;;;;;5110583;28;19998;-76
2022/01/09 07:03:46;;;;;;;;;;;4.90;99.90;;;;;;5094187;28;19973;-77
2022/01/09 07:06:11;;;;;;;;;;;4.80;99.90;;;;;;5093291;28;20379;-75
2022/01/09 07:08:37;;;;;;;;;;;4.90;99.90;;;;;;5076563;28;19920;-77
2022/01/09 07:11:03;;;;;;;;;;;4.80;99.90;;;;;;5103541;28;19916;-77
2022/01/09 07:13:28;;;;;;;;;;;4.80;99.90;;;;;;5096315;28;19916;-76
2022/01/09 07:15:54;;;;;;;;;;;4.70;99.90;;;;;;5114221;28;19920;-76
2022/01/09 07:18:19;;;;;;;;;;;4.70;99.90;;;;;;5095279;28;19908;-76
2022/01/09 07:20:45;;;;;;;;;;;4.70;99.90;;;;;;5114339;28;19947;-77
2022/01/09 07:23:10;;;;;;;;;;;4.60;99.90;;;;;;5091256;28;20369;-77
2022/01/09 07:25:36;;;;;;;;;;;4.60;99.90;;;;;;5114162;28;19919;-75
2022/01/09 07:28:02;;;;;;;;;;;4.70;99.90;;;;;;5112200;28;20044;-76
2022/01/09 07:30:28;;;;;;;;;;;4.70;99.90;;;;;;5099221;28;19962;-76
2022/01/09 07:32:54;;;;;;;;;;;4.70;99.90;;;;;;5075930;28;20011;-77
2022/01/09 07:35:19;;;;;;;;;;;4.70;99.90;;;;;;5093018;28;19982;-75
2022/01/09 07:37:45;;;;;;;;;;;4.70;99.90;;;;;;5093886;28;19912;-76
2022/01/09 07:40:11;;;;;;;;;;;4.60;99.90;;;;;;5075807;28;20014;-77
2022/01/09 07:42:36;;;;;;;;;;;4.60;99.90;;;;;;5113742;28;19945;-76
2022/01/09 07:45:06;;;;;;;;;;;4.60;99.90;;;;;;5095792;28;20003;-75
2022/01/09 07:47:32;;;;;;;;;;;;;;;;;;5113828;28;19908;-77
2022/01/09 07:49:58;;;;;;;;;;;4.50;99.90;;;;;;5097533;28;19919;-75
2022/01/09 07:52:23;;;;;;;;;;;4.50;99.90;;;;;;5113084;28;19934;-78
2022/01/09 07:54:49;;;;;;;;;;;4.60;99.90;;;;;;5113179;28;19951;-71
2022/01/09 07:57:14;;;;;;;;;;;4.50;99.90;;;;;;5112783;28;20290;-73
2022/01/09 07:59:40;;;;;;;;;;;4.60;99.90;;;;;;5113244;28;19908;-75
2022/01/09 08:02:06;;;;;;;;;;;4.50;99.90;;;;;;5099128;28;19912;-72
2022/01/09 08:04:32;;;;;;;;;;;4.50;99.90;;;;;;5093383;28;19918;-74
2022/01/09 08:06:57;;;;;;;;;;;4.50;99.90;;;;;;5092914;28;19908;-76
2022/01/09 08:09:23;;;;;;;;;;;4.60;99.90;;;;;;5074339;28;19908;-74
2022/01/09 08:11:49;;;;;;;;;;;4.60;99.90;;;;;;5089996;28;19912;-77
2022/01/09 08:14:14;;;;;;;;;;;4.50;99.90;;;;;;5113198;28;19933;-74
2022/01/09 08:16:40;;;;;;;;;;;4.60;99.90;;;;;;5112348;28;20019;-72
2022/01/09 08:19:06;;;;;;;;;;;4.50;99.90;;;;;;5099164;28;19912;-72
2022/01/09 08:21:31;;;;;;;;;;;4.50;99.90;;;;;;5113253;28;19912;-74
2022/01/09 08:23:57;;;;;;;;;;;4.60;99.90;;;;;;5096681;28;19912;-76
2022/01/09 08:26:22;;;;;;;;;;;4.50;99.90;;;;;;5095975;28;19922;-76
2022/01/09 08:28:48;;;;;;;;;;;4.50;99.90;;;;;;5098804;28;19912;-75
2022/01/09 08:31:14;;;;;;;;;;;4.50;99.90;;;;;;5108851;28;19935;-75
2022/01/09 08:33:40;;;;;;;;;;;4.50;99.90;;;;;;5107595;28;19914;-76
2022/01/09 08:36:05;;;;;;;;;;;4.50;99.90;;;;;;5107671;28;19924;-75
2022/01/09 08:38:31;;;;;;;;;;;;;;;;;;5092466;28;20371;-72
2022/01/09 08:40:57;;;;;;;;;;;4.60;99.90;;;;;;5100779;28;19941;-74
2022/01/09 08:43:23;;;;;;;;;;;;;;;;;;5112689;28;19918;-73
2022/01/09 08:45:49;;;;;;;;;;;;;;;;;;5094951;28;19912;-74
2022/01/09 08:48:15;;;;;;;;;;;4.60;99.90;;;;;;5112857;28;19915;-74
2022/01/09 08:50:41;;;;;;;;;;;;;;;;;;5091667;28;19916;-74
2022/01/09 08:53:06;;;;;;;;;;;;;;;;;;5102758;28;20402;-73
2022/01/09 08:55:32;;;;;;;;;;;4.50;99.90;;;;;;5080735;28;20015;-73
2022/01/09 08:57:58;;;;;;;;;;;;;;;;;;5101475;28;19938;-74
2022/01/09 09:00:24;;;;;;;;;;;;;;;;;;5099982;28;19912;-73
2022/01/09 09:02:50;;;;;;;;;;;;;;;;;;5101865;28;20010;-75
2022/01/09 09:05:15;;;;;;;;;;;4.40;99.90;;;;;;5101441;28;19939;-73
2022/01/09 09:07:41;;;;;;;;;;;;;;;;;;5099694;28;19988;-74
2022/01/09 09:10:07;;;;;;;;;;;;;;;;;;5102238;28;20010;-73
2022/01/09 09:12:33;;;;;;;;;;;;;;;;;;5102966;28;19916;-74
2022/01/09 09:14:59;;;;;;;;;;;;;;;;;;5112116;28;19915;-75
2022/01/09 09:17:25;;;;;;;;;;;4.50;99.90;;;;;;5093884;28;20371;-75
2022/01/09 09:19:51;;;;;;;;;;;4.60;99.90;;;;;;5113085;28;19908;-75
2022/01/09 09:22:17;;;;;;;;;;;;;;;;;;5094237;28;20312;-75
2022/01/09 09:24:43;;;;;;;;;;;;;;;;;;5112855;28;19922;-74
2022/01/09 09:27:08;;;;;;;;;;;;;;;;;;5112238;28;19912;-73
2022/01/09 09:29:34;;;;;;;;;;;4.70;99.90;;;;;;5111551;28;19969;-73
2022/01/09 09:32:00;;;;;;;;;;;4.70;99.90;;;;;;5114631;28;19955;-75
2022/01/09 09:34:25;;;;;;;;;;;4.60;99.90;;;;;;5096643;28;19958;-76
2022/01/09 09:36:52;;;;;;;;;;;;;;;;;;5110973;28;19920;-74
2022/01/09 09:39:18;;;;;;;;;;;4.70;99.90;;;;;;5096644;28;19911;-75
2022/01/09 09:41:43;;;;;;;;;;;4.60;99.90;;;;;;5097942;28;20430;-77
2022/01/09 09:44:09;;;;;;;;;;;4.70;99.90;;;;;;5116468;28;19908;-76
2022/01/09 09:46:35;;;;;;;;;;;4.70;99.90;;;;;;5115206;28;20504;-75
2022/01/09 09:49:01;;;;;;;;;;;4.70;99.90;;;;;;5115583;28;19908;-75
2022/01/09 09:51:30;;;;;;;;;;;4.70;99.90;;;;;;5114802;28;19915;-76
2022/01/09 09:53:56;;;;;;;;;;;4.70;99.90;;;;;;5115781;28;20347;-77
2022/01/09 09:56:22;;;;;;;;;;;4.70;99.90;;;;;;5114763;28;19924;-76
2022/01/09 09:58:51;;;;;;;;;;;4.60;99.90;;;;;;5115723;28;19915;-76
2022/01/09 10:01:17;;;;;;;;;;;;;;;;;;5115101;28;19915;-75
2022/01/09 10:03:52;;;;;;;;;;;4.70;99.90;;;;;;5095812;28;19915;-77
2022/01/09 10:06:53;;;;;;;;;;;4.80;99.90;;;;;;5115171;28;19908;-76
2022/01/09 10:09:22;;;;;;;;;;;4.90;99.90;;;;;;4993109;28;19957;-77
2022/01/09 10:11:49;;;;;;;;;;;4.90;99.90;;;;;;5089466;28;19908;-77
2022/01/09 10:14:15;;;;;;;;;;;;;;;;;;5116226;28;20373;-80
2022/01/09 10:16:40;;;;;;;;;;;4.80;99.90;;;;;;5097467;28;19916;-83
2022/01/09 10:19:06;;;;;;;;;;;4.80;99.90;;;;;;5103536;28;19956;-82
2022/01/09 10:21:31;;;;;;;;;;;4.90;99.90;;;;;;5117019;28;19975;-79
2022/01/09 10:24:07;;;;;;;;;;;4.80;99.90;;;;;;5096659;28;19919;-83
2022/01/09 10:26:34;;;;;;;;;;;4.90;99.90;;;;;;5111276;28;19920;-82
2022/01/09 10:29:00;;;;;;;;;;;;;;;;;;5075440;28;19916;-80
2022/01/09 10:31:26;;;;;;;;;;;5.10;99.90;;;;;;5096749;28;19918;-79
2022/01/09 10:34:11;;;;;;;;;;;5.00;99.90;;;;;;5098398;28;20344;-87
2022/01/09 10:36:43;;;;;;;;;;;5.00;99.90;;;;;;5110963;27;20328;-76
2022/01/09 10:39:10;;;;;;;;;;;5.00;99.90;;;;;;5097961;28;19971;-76
2022/01/09 10:41:55;;;;;;;;;;;5.00;99.90;;;;;;5112750;28;19910;-74
2022/01/09 10:44:27;;;;;;;;;;;5.00;99.90;;;;;;5104431;28;19911;-71
2022/01/09 10:47:04;;;;;;;;;;;5.00;99.90;;;;;;5112984;28;20006;-72
2022/01/09 10:49:39;;;;;;;;;;;5.10;99.90;;;;;;5113319;28;19908;-73
2022/01/09 10:52:12;;;;;;;;;;;5.10;99.90;;;;;;5111409;28;19912;-79
2022/01/09 10:54:39;;;;;;;;;;;5.20;99.90;;;;;;5097866;28;20439;-79
2022/01/09 10:57:11;;;;;;;;;;;5.20;99.90;;;;;;5088364;28;19924;-79
2022/01/09 10:59:37;;;;;;;;;;;5.20;99.90;;;;;;5109881;28;20379;-79
2022/01/09 11:02:03;;;;;;;;;;;5.20;99.90;;;;;;5113466;28;19912;-74
2022/01/09 11:04:29;;;;;;;;;;;5.20;99.90;;;;;;5112743;28;19960;-75
2022/01/09 11:06:55;;;;;;;;;;;5.30;99.90;;;;;;5113785;28;19912;-74
2022/01/09 11:09:24;;;;;;;;;;;5.20;99.90;;;;;;5102760;28;19912;-75
2022/01/09 11:11:50;;;;;;;;;;;;;;;;;;5101473;28;19921;-76
2022/01/09 11:14:19;;;;;;;;;;;5.30;99.90;;;;;;5104319;28;19978;-73
2022/01/09 11:16:51;;;;;;;;;;;5.40;99.90;;;;;;5102314;28;19920;-74
2022/01/09 11:19:18;;;;;;;;;;;5.40;99.90;;;;;;5097091;28;19962;-75
2022/01/09 11:21:52;;;;;;;;;;;5.30;99.90;;;;;;5102717;28;19999;-74
2022/01/09 11:24:36;;;;;;;;;;;5.30;99.90;;;;;;5100785;28;19998;-74
2022/01/09 11:27:18;;;;;;;;;;;5.30;99.90;;;;;;5102985;28;19916;-73
2022/01/09 11:30:03;;;;;;;;;;;5.30;99.90;;;;;;5103493;28;20048;-75
2022/01/09 11:32:38;;;;;;;;;;;5.60;99.90;;;;;;5099623;28;19912;-77
2022/01/09 11:35:04;;;;;;;;;;;;;;;;;;5093062;28;19947;-77
2022/01/09 11:37:44;;;;;;;;;;;5.30;99.90;;;;;;5092723;28;20004;-77
2022/01/09 11:40:22;;;;;;;;;;;5.40;99.90;;;;;;5092850;28;20322;-78
2022/01/09 11:42:58;;;;;;;;;;;5.40;99.90;;;;;;5104143;28;20352;-79
2022/01/09 11:45:24;;;;;;;;;;;;;;;;;;5093119;28;19908;-79
2022/01/09 11:47:51;;;;;;;;;;;5.60;99.90;;;;;;5112265;28;20377;-78
2022/01/09 11:50:18;;;;;;;;;;;5.60;99.90;;;;;;5102161;28;19912;-77
2022/01/09 11:52:56;;;;;;;;;;;5.50;99.90;;;;;;5097635;28;20355;-78
2022/01/09 11:55:22;;;;;;;;;;;;;;;;;;5112294;28;19927;-74
2022/01/09 11:57:48;;;;;;;;;;;5.60;99.90;;;;;;5070619;28;19993;-75
2022/01/09 12:00:14;;;;;;;;;;;;;;;;;;5103684;28;19935;-76
2022/01/09 12:02:39;;;;;;;;;;;5.60;99.90;;;;;;5090993;28;19958;-76
2022/01/09 12:05:06;;;;;;;;;;;5.60;99.90;;;;;;5110010;28;19912;-75
2022/01/09 12:07:32;;;;;;;;;;;;;;;;;;5077538;28;20356;-76
2022/01/09 12:09:58;;;;;;;;;;;5.60;99.90;;;;;;5089105;28;19923;-76
2022/01/09 12:12:24;;;;;;;;;;;;;;;;;;5099932;28;19916;-77
2022/01/09 12:17:28;;;;;;;;;;;5.70;99.90;;;;;;5097824;28;19923;-75
2022/01/09 12:20:18;;;;;;;;;;;5.80;99.90;;;;;;5109706;28;20384;-75
2022/01/09 12:22:46;;;;;;;;;;;5.70;99.90;;;;;;5089551;28;19985;-76
2022/01/09 12:25:30;;;;;;;;;;;5.60;99.90;;;;;;5104874;28;20398;-75
2022/01/09 12:27:57;;;;;;;;;;;;;;;;;;5104095;28;19912;-75
2022/01/09 12:30:49;;;;;;;;;;;5.60;99.90;;;;;;5089563;28;19914;-76
2022/01/09 12:33:19;;;;;;;;;;;5.70;99.90;;;;;;5088243;28;20002;-75
2022/01/09 12:35:47;;;;;;;;;;;5.70;99.90;;;;;;5097125;28;19920;-75
2022/01/09 12:38:13;;;;;;;;;;;5.90;99.90;;;;;;5074609;28;19920;-75
2022/01/09 12:40:40;;;;;;;;;;;5.90;99.90;;;;;;5109220;28;19908;-74
2022/01/09 12:43:07;;;;;;;;;;;5.70;99.90;;;;;;5090093;28;20329;-75
2022/01/09 12:45:32;;;;;;;;;;;;;;;;;;5100091;28;19916;-74
2022/01/09 12:47:59;;;;;;;;;;;5.90;99.90;;;;;;5089686;28;19919;-75
2022/01/09 12:50:27;;;;;;;;;;;5.90;99.90;;;;;;5109325;28;19911;-75
2022/01/09 12:53:12;;;;;;;;;;;6.10;99.90;;;;;;5109283;28;19916;-74
2022/01/09 12:55:56;;;;;;;;;;;6.00;99.90;;;;;;5089868;28;20014;-75
2022/01/09 12:58:26;;;;;;;;;;;6.10;99.90;;;;;;5108485;28;20030;-75
2022/01/09 13:00:52;;;;;;;;;;;6.10;99.90;;;;;;5088031;28;19916;-76
2022/01/09 13:03:19;;;;;;;;;;;6.10;99.90;;;;;;5101820;28;19922;-75
2022/01/09 13:05:54;;;;;;;;;;;6.20;99.90;;;;;;5107994;28;19923;-75
2022/01/09 13:08:20;;;;;;;;;;;6.10;99.90;;;;;;5073803;28;19908;-75
2022/01/09 13:10:54;;;;;;;;;;;6.10;99.90;;;;;;5093246;28;19919;-74
2022/01/09 13:13:22;;;;;;;;;;;6.20;99.90;;;;;;5104118;28;19912;-74
2022/01/09 13:15:47;;;;;;;;;;;6.20;99.90;;;;;;5094787;28;19917;-75
2022/01/09 13:18:13;;;;;;;;;;;6.10;99.90;;;;;;5109005;28;19916;-74
2022/01/09 13:20:38;;;;;;;;;;;6.10;99.90;;;;;;5114863;28;19908;-75
2022/01/09 13:23:17;;;;;;;;;;;6.00;99.90;;;;;;5115841;28;19908;-74
2022/01/09 13:25:47;;;;;;;;;;;6.10;99.90;;;;;;5115783;28;19922;-74
2022/01/09 13:28:19;;;;;;;;;;;5.90;99.90;;;;;;5104881;28;20001;-74
2022/01/09 13:30:45;;;;;;;;;;;5.90;99.90;;;;;;5096854;28;20362;-74
2022/01/09 13:33:11;;;;;;;;;;;5.90;99.90;;;;;;5115858;28;19912;-74
2022/01/09 13:35:36;;;;;;;;;;;5.90;99.90;;;;;;5085194;28;19926;-74
2022/01/09 13:38:02;;;;;;;;;;;6.00;99.90;;;;;;5101558;28;19915;-74
2022/01/09 13:40:28;;;;;;;;;;;5.90;99.90;;;;;;5115933;28;19908;-74
2022/01/09 13:42:54;;;;;;;;;;;6.00;99.90;;;;;;5113684;28;19998;-74
2022/01/09 13:45:22;;;;;;;;;;;6.10;99.90;;;;;;5108078;28;19916;-74
2022/01/09 13:47:52;;;;;;;;;;;6.20;99.90;;;;;;5085171;28;19912;-74
2022/01/09 13:50:17;;;;;;;;;;;6.00;99.40;;;;;;5077112;28;19908;-74
2022/01/09 13:52:43;;;;;;;;;;;6.00;99.80;;;;;;5077995;28;19969;-74
2022/01/09 13:55:12;;;;;;;;;;;6.00;99.50;;;;;;5129699;27;19946;-73
2022/01/09 13:57:48;;;;;;;;;;;6.10;99.50;;;;;;5114896;27;20010;-75
2022/01/09 14:00:14;;;;;;;;;;;6.10;99.10;;;;;;5096454;28;19961;-74
2022/01/09 14:02:41;;;;;;;;;;;6.00;98.80;;;;;;5079903;28;20352;-74
2022/01/09 14:05:11;;;;;;;;;;;6.00;99.20;;;;;;5094842;28;19912;-74
2022/01/09 14:07:37;;;;;;;;;;;6.00;99.60;;;;;;5094508;28;19912;-74
2022/01/09 14:10:03;;;;;;;;;;;6.10;99.30;;;;;;5080670;28;20248;-74
2022/01/09 14:12:30;;;;;;;;;;;6.10;98.90;;;;;;5103436;28;19920;-74
2022/01/09 14:14:55;;;;;;;;;;;6.20;98.20;;;;;;5085492;28;19912;-74
2022/01/09 14:17:25;;;;;;;;;;;6.40;97.90;;;;;;5099343;28;19927;-74
2022/01/09 14:19:51;;;;;;;;;;;6.30;97.50;;;;;;5096850;28;19922;-74
2022/01/09 14:22:17;;;;;;;;;;;6.10;97.90;;;;;;5114957;28;19908;-74
2022/01/09 14:24:56;;;;;;;;;;;6.20;98.40;;;;;;5096186;28;19912;-74
2022/01/09 14:27:26;;;;;;;;;;;6.10;97.80;;;;;;5101732;28;20002;-74
2022/01/09 14:29:51;;;;;;;;;;;6.20;98.10;;;;;;5114023;28;19960;-75
2022/01/09 14:32:17;;;;;;;;;;;6.30;97.60;;;;;;5079542;28;19917;-75
2022/01/09 14:34:43;;;;;;;;;;;6.40;97.00;;;;;;5105121;28;20371;-74
2022/01/09 14:37:09;;;;;;;;;;;6.40;96.70;;;;;;5114790;28;19916;-74
2022/01/09 14:39:35;;;;;;;;;;;6.40;97.10;;;;;;5113870;28;19921;-74
2022/01/09 14:42:01;;;;;;;;;;;6.40;97.10;;;;;;5114552;28;19908;-74
2022/01/09 14:44:26;;;;;;;;;;;6.40;96.60;;;;;;5107977;28;19958;-74